Perch, North Carolina
Current Conditions -  °F | °C
As of 8:55 PM on Friday 24 Oct 2014 (Local Time) from KMWK Reporting Station
Clear Clear  
Wind Chill: 13°   Ceiling: Unl
Heat Index: 13°   Visibility: 10mi
Dew Point:   Wind: 3mph
Humidity: 61%   Direction: 340°NNW
Pressure: 30.03"   Gusts: NA
Location:  36.3244°N, 80.463°W
Report Text: KMWK 250055Z AUTO 34003KT 10SM CLR 13/06 A3003 RMK AO2 T01290055
Loading
Personal Weather Stations






























Interactive Weather Map
Tropical Storm Tracking
New forecast layout! Learn more

10-Day Weather Forecast

Advertisements
Track Severe Weather on mobile